Time;durP1;ratioP1;P1;durP2;ratioP2;P2;SDS_P1;SDS_P2;PMS_P1;PMS_P2;Temp;Humidity;BMP_temperature;BMP_pressure;BME280_temperature;BME280_humidity;BME280_pressure;Samples;Min_cycle;Max_cycle;Signal;HPM_P1;HPM_P2
2023/06/11 00:01:14;;;;;;;11.60;9.03;;;21.30;99.90;;;;;;4955721;28;20192;-59
2023/06/11 00:03:46;;;;;;;10.93;9.83;;;21.30;99.90;;;;;;4951876;28;20224;-59
2023/06/11 00:06:17;;;;;;;11.83;9.57;;;21.20;99.90;;;;;;4950485;28;20230;-59
2023/06/11 00:08:46;;;;;;;10.53;9.43;;;21.10;99.90;;;;;;4953597;28;20643;-58
2023/06/11 00:11:14;;;;;;;12.87;9.37;;;21.00;99.90;;;;;;4954161;28;20224;-59
2023/06/11 00:13:43;;;;;;;14.63;9.83;;;21.00;99.90;;;;;;4954494;28;20224;-59
2023/06/11 00:16:13;;;;;;;10.17;9.27;;;21.00;99.90;;;;;;4955742;28;20204;-58
2023/06/11 00:18:43;;;;;;;10.57;9.57;;;20.90;99.90;;;;;;4950746;28;20223;-58
2023/06/11 00:21:13;;;;;;;10.13;9.13;;;20.90;99.90;;;;;;4953457;28;20220;-59
2023/06/11 00:23:41;;;;;;;14.47;9.30;;;20.80;99.90;;;;;;4954724;28;20226;-59
2023/06/11 00:26:11;;;;;;;10.90;9.87;;;20.80;99.90;;;;;;4953650;28;20616;-59
2023/06/11 00:28:39;;;;;;;10.07;9.10;;;20.70;99.90;;;;;;4948970;28;20259;-59
2023/06/11 00:31:08;;;;;;;11.20;9.50;;;20.60;99.90;;;;;;4952181;28;20895;-58
2023/06/11 00:33:36;;;;;;;12.30;9.93;;;20.60;99.90;;;;;;4953266;28;20223;-58
2023/06/11 00:36:07;;;;;;;10.73;9.63;;;20.50;99.90;;;;;;4951266;28;20228;-58
2023/06/11 00:38:35;;;;;;;11.70;9.97;;;20.50;99.90;;;;;;4954450;28;20235;-58
2023/06/11 00:41:03;;;;;;;12.20;9.70;;;20.40;99.90;;;;;;4952951;28;20228;-58
2023/06/11 00:43:32;;;;;;;12.60;9.40;;;20.40;99.90;;;;;;4954025;28;20200;-58
2023/06/11 00:46:02;;;;;;;10.83;9.83;;;20.30;99.90;;;;;;4955333;28;20192;-58
2023/06/11 00:48:30;;;;;;;11.97;9.83;;;20.30;99.90;;;;;;4950110;28;20231;-58
2023/06/11 00:50:59;;;;;;;10.60;9.47;;;20.30;99.90;;;;;;4957299;28;20223;-59
2023/06/11 00:53:29;;;;;;;11.17;9.60;;;20.20;99.90;;;;;;4954038;28;20234;-59
2023/06/11 00:55:57;;;;;;;10.60;9.50;;;20.10;99.90;;;;;;4953715;28;20231;-58
2023/06/11 00:58:27;;;;;;;11.10;10.00;;;20.10;99.90;;;;;;4951282;28;20235;-58
2023/06/11 01:00:59;;;;;;;12.40;9.73;;;20.00;99.90;;;;;;4950413;28;20195;-58
2023/06/11 01:03:28;;;;;;;10.53;9.53;;;20.00;99.90;;;;;;4952765;28;20215;-58
2023/06/11 01:06:02;;;;;;;10.57;9.53;;;19.90;99.90;;;;;;4951701;28;20227;-58
2023/06/11 01:08:38;;;;;;;11.63;9.57;;;19.80;99.90;;;;;;4954134;28;20575;-58
2023/06/11 01:11:13;;;;;;;10.43;9.33;;;19.80;99.90;;;;;;4949320;28;20227;-58
2023/06/11 01:13:42;;;;;;;12.40;10.30;;;19.70;99.90;;;;;;4952279;28;20229;-58
2023/06/11 01:16:15;;;;;;;11.43;10.13;;;19.60;99.90;;;;;;4954527;28;20207;-58
2023/06/11 01:18:53;;;;;;;11.90;10.07;;;19.60;99.90;;;;;;4952419;28;20240;-58
2023/06/11 01:21:29;;;;;;;11.10;10.00;;;19.50;99.90;;;;;;4947440;28;20815;-59
2023/06/11 01:24:09;;;;;;;11.67;10.57;;;19.50;99.90;;;;;;4952418;28;20770;-59
2023/06/11 01:26:47;;;;;;;11.40;10.30;;;19.50;99.90;;;;;;4951548;28;20228;-58
2023/06/11 01:29:20;;;;;;;15.40;10.80;;;19.40;99.90;;;;;;4952776;28;20326;-58
2023/06/11 01:31:50;;;;;;;13.10;10.10;;;19.40;99.90;;;;;;4952407;28;20630;-58
2023/06/11 01:34:19;;;;;;;10.60;9.63;;;19.30;99.90;;;;;;4953858;28;20275;-57
2023/06/11 01:36:48;;;;;;;11.57;10.40;;;19.30;99.90;;;;;;4954152;28;20662;-59
2023/06/11 01:39:16;;;;;;;11.23;10.13;;;19.20;99.90;;;;;;4953427;28;20315;-58
2023/06/11 01:41:45;;;;;;;11.83;10.70;;;19.20;99.90;;;;;;4953456;28;20216;-59
2023/06/11 01:44:13;;;;;;;13.23;10.00;;;19.20;99.90;;;;;;4951198;28;20703;-59
2023/06/11 01:46:42;;;;;;;13.30;10.00;;;19.10;99.90;;;;;;4953850;28;20223;-59
2023/06/11 01:49:11;;;;;;;11.63;10.53;;;19.10;99.90;;;;;;4953015;28;20188;-58
2023/06/11 01:51:40;;;;;;;11.63;10.43;;;19.10;99.90;;;;;;4955633;28;20220;-59
2023/06/11 01:54:08;;;;;;;11.87;10.53;;;19.10;99.90;;;;;;4951996;28;20560;-59
2023/06/11 01:56:37;;;;;;;15.80;10.60;;;19.10;99.90;;;;;;4944035;28;20310;-59
2023/06/11 01:59:06;;;;;;;13.27;10.77;;;19.00;99.90;;;;;;4952220;28;20230;-58
2023/06/11 02:01:36;;;;;;;17.50;10.33;;;19.00;99.90;;;;;;4954099;28;20251;-58
2023/06/11 02:04:07;;;;;;;12.23;10.40;;;19.00;99.90;;;;;;4954080;28;20247;-58
2023/06/11 02:06:35;;;;;;;11.80;10.70;;;18.90;99.90;;;;;;4953074;28;20614;-59
2023/06/11 02:09:03;;;;;;;13.20;10.67;;;18.90;99.90;;;;;;4953727;28;20261;-59
2023/06/11 02:11:32;;;;;;;12.77;10.47;;;18.90;99.90;;;;;;4951845;28;20235;-58
2023/06/11 02:14:00;;;;;;;11.77;10.70;;;18.80;99.90;;;;;;4953027;28;20224;-58
2023/06/11 02:16:28;;;;;;;11.77;10.67;;;18.80;99.90;;;;;;4952954;28;20199;-58
2023/06/11 02:18:57;;;;;;;12.43;11.10;;;18.80;99.90;;;;;;4952818;29;20558;-58
2023/06/11 02:21:26;;;;;;;11.87;10.73;;;18.80;99.90;;;;;;4953153;28;20252;-58
2023/06/11 02:23:54;;;;;;;13.70;11.50;;;18.70;99.90;;;;;;4953829;28;20222;-58
2023/06/11 02:26:23;;;;;;;11.43;10.40;;;18.60;99.90;;;;;;4953342;28;20252;-58
2023/06/11 02:28:52;;;;;;;12.20;10.83;;;18.60;99.90;;;;;;4953344;28;20228;-58
2023/06/11 02:31:21;;;;;;;12.13;10.97;;;18.60;99.90;;;;;;4953573;28;20563;-58
2023/06/11 02:33:49;;;;;;;14.67;11.70;;;18.60;99.90;;;;;;4954077;28;20720;-59
2023/06/11 02:36:17;;;;;;;12.57;11.27;;;18.60;99.90;;;;;;4941641;28;20223;-58
2023/06/11 02:38:47;;;;;;;12.80;10.97;;;18.50;99.90;;;;;;4948475;28;20230;-58
2023/06/11 02:41:16;;;;;;;11.77;10.57;;;18.50;99.90;;;;;;4952869;28;20232;-58
2023/06/11 02:43:44;;;;;;;13.63;10.37;;;18.50;99.90;;;;;;4956676;28;20228;-58
2023/06/11 02:46:12;;;;;;;12.17;10.87;;;18.50;99.90;;;;;;4954882;28;20204;-58
2023/06/11 02:48:41;;;;;;;12.00;10.90;;;18.40;99.90;;;;;;4955962;28;20224;-59
2023/06/11 02:51:09;;;;;;;11.97;10.77;;;18.40;99.90;;;;;;4956882;28;20242;-59
2023/06/11 02:53:38;;;;;;;11.93;10.90;;;18.30;99.90;;;;;;4949035;28;20231;-58
2023/06/11 02:56:08;;;;;;;12.33;11.07;;;18.30;99.90;;;;;;4958476;28;20309;-59
2023/06/11 02:58:36;;;;;;;12.33;11.13;;;18.30;99.90;;;;;;4956183;28;20235;-58
2023/06/11 03:01:04;;;;;;;11.70;10.37;;;18.20;99.90;;;;;;4956893;28;20192;-59
2023/06/11 03:03:33;;;;;;;12.13;11.03;;;18.20;99.90;;;;;;4955738;28;20227;-59
2023/06/11 03:06:01;;;;;;;12.57;11.03;;;18.20;99.90;;;;;;4956817;28;20223;-58
2023/06/11 03:08:30;;;;;;;14.20;10.90;;;18.10;99.90;;;;;;4952175;28;20302;-58
2023/06/11 03:10:58;;;;;;;13.47;11.77;;;18.10;99.90;;;;;;4956368;28;20228;-58
2023/06/11 03:13:28;;;;;;;13.37;11.13;;;18.00;99.90;;;;;;4955272;28;20267;-58
2023/06/11 03:15:56;;;;;;;14.13;12.13;;;18.00;99.90;;;;;;4957015;29;20219;-59
2023/06/11 03:18:25;;;;;;;12.90;11.60;;;17.90;99.90;;;;;;4953112;28;20216;-58
2023/06/11 03:20:53;;;;;;;13.63;12.23;;;17.80;99.90;;;;;;4946983;28;20221;-59
2023/06/11 03:23:21;;;;;;;13.07;11.73;;;17.80;99.90;;;;;;4955706;28;20222;-58
2023/06/11 03:25:50;;;;;;;12.57;11.47;;;17.70;99.90;;;;;;4956182;28;20668;-58
2023/06/11 03:28:18;;;;;;;15.40;12.20;;;17.70;99.90;;;;;;4956037;29;20524;-59
2023/06/11 03:30:48;;;;;;;12.23;11.13;;;17.70;99.90;;;;;;4956666;28;20227;-58
2023/06/11 03:33:16;;;;;;;16.23;12.33;;;17.70;99.90;;;;;;4955794;28;20306;-59
2023/06/11 03:35:45;;;;;;;13.97;12.50;;;17.70;99.90;;;;;;4955503;28;21040;-58
2023/06/11 03:38:13;;;;;;;18.50;12.63;;;17.70;99.90;;;;;;4954196;28;20236;-58
2023/06/11 03:40:41;;;;;;;15.10;11.77;;;17.70;99.90;;;;;;4955192;28;20667;-58
2023/06/11 03:43:10;;;;;;;15.80;12.33;;;17.70;99.90;;;;;;4955298;28;20307;-59
2023/06/11 03:45:38;;;;;;;13.80;12.20;;;17.60;99.90;;;;;;4955775;28;20310;-59
2023/06/11 03:48:08;;;;;;;20.60;12.83;;;17.60;99.90;;;;;;4955106;28;20646;-59
2023/06/11 03:50:36;;;;;;;15.03;12.93;;;17.50;99.90;;;;;;4955026;28;20220;-59
2023/06/11 03:53:05;;;;;;;14.93;12.73;;;17.40;99.90;;;;;;4954981;28;20224;-59
2023/06/11 03:55:33;;;;;;;13.80;12.37;;;17.40;99.90;;;;;;4954326;28;20203;-58
2023/06/11 03:58:01;;;;;;;13.93;12.53;;;17.40;99.90;;;;;;4953953;28;20300;-58
2023/06/11 04:00:31;;;;;;;14.60;13.10;;;17.40;99.90;;;;;;4950036;28;20219;-58
2023/06/11 04:03:00;;;;;;;18.40;13.87;;;17.40;99.90;;;;;;4954425;28;20569;-59
2023/06/11 04:05:36;;;;;;;14.20;12.60;;;17.40;99.90;;;;;;4953210;28;20223;-59
2023/06/11 04:08:05;;;;;;;16.87;13.33;;;17.40;99.90;;;;;;4949397;28;20614;-58
2023/06/11 04:10:33;;;;;;;14.73;13.17;;;17.30;99.90;;;;;;4955039;28;20631;-59
2023/06/11 04:13:01;;;;;;;14.80;13.20;;;17.40;99.90;;;;;;4954311;28;20200;-59
2023/06/11 04:15:30;;;;;;;13.60;12.23;;;17.40;99.90;;;;;;4954372;28;20244;-59
2023/06/11 04:17:58;;;;;;;14.70;12.67;;;17.50;99.90;;;;;;4954501;28;20228;-58
2023/06/11 04:20:27;;;;;;;13.30;12.00;;;17.50;99.90;;;;;;4954803;28;20223;-58
2023/06/11 04:22:57;;;;;;;15.43;13.27;;;17.60;99.90;;;;;;4954034;28;20256;-59
2023/06/11 04:25:26;;;;;;;18.60;13.40;;;17.60;99.90;;;;;;4952482;28;20203;-58
2023/06/11 04:27:54;;;;;;;13.83;12.53;;;17.70;99.90;;;;;;4955044;28;20200;-59
2023/06/11 04:30:22;;;;;;;14.00;12.50;;;17.80;99.90;;;;;;4955013;28;20220;-58
2023/06/11 04:32:54;;;;;;;17.17;12.53;;;17.80;99.90;;;;;;4955055;28;20232;-59
2023/06/11 04:35:24;;;;;;;14.50;11.83;;;17.90;99.90;;;;;;4954295;28;20710;-59
2023/06/11 04:37:52;;;;;;;14.97;11.57;;;17.90;99.90;;;;;;4955303;28;20228;-59
2023/06/11 04:40:24;;;;;;;18.17;12.50;;;18.00;99.90;;;;;;4947958;28;20725;-58
2023/06/11 04:42:52;;;;;;;14.93;12.97;;;18.10;99.90;;;;;;4954258;28;20219;-58
2023/06/11 04:45:21;;;;;;;15.87;12.77;;;18.10;99.90;;;;;;4953823;28;20695;-59
2023/06/11 04:47:49;;;;;;;12.97;11.67;;;18.20;99.90;;;;;;4954952;28;20321;-58
2023/06/11 04:50:20;;;;;;;14.23;12.73;;;18.20;99.90;;;;;;4954540;28;20260;-59
2023/06/11 04:52:51;;;;;;;13.27;11.97;;;18.30;99.90;;;;;;4954717;28;20280;-58
2023/06/11 04:55:24;;;;;;;17.10;13.07;;;18.40;99.90;;;;;;4953614;28;20196;-58
2023/06/11 04:57:54;;;;;;;13.07;11.77;;;18.50;99.90;;;;;;4952835;29;20228;-59
2023/06/11 05:00:22;;;;;;;15.43;12.33;;;18.60;99.90;;;;;;4949594;28;20216;-59
2023/06/11 05:02:51;;;;;;;12.63;11.33;;;18.70;99.90;;;;;;4954358;28;20227;-59
2023/06/11 05:05:20;;;;;;;13.17;11.80;;;18.80;99.90;;;;;;4953467;28;20224;-58
2023/06/11 05:07:48;;;;;;;11.87;10.67;;;18.90;99.90;;;;;;4946509;28;20231;-58
2023/06/11 05:10:18;;;;;;;13.73;11.30;;;19.00;99.90;;;;;;4954914;28;20196;-59
2023/06/11 05:12:47;;;;;;;13.90;11.90;;;19.00;99.90;;;;;;4953675;29;20779;-58
2023/06/11 05:15:16;;;;;;;13.30;11.00;;;19.10;99.90;;;;;;4953787;28;20228;-59
2023/06/11 05:17:45;;;;;;;11.93;10.70;;;19.20;99.90;;;;;;4949121;28;20691;-59
2023/06/11 05:20:14;;;;;;;15.47;12.17;;;19.40;99.90;;;;;;4952141;28;20235;-59
2023/06/11 05:22:42;;;;;;;13.43;11.37;;;19.40;99.90;;;;;;4951637;28;20230;-59
2023/06/11 05:25:14;;;;;;;12.47;11.27;;;19.50;99.90;;;;;;4968086;28;20196;-58
2023/06/11 05:27:43;;;;;;;12.57;11.27;;;19.60;99.90;;;;;;4947741;28;20562;-59
2023/06/11 05:30:14;;;;;;;12.70;11.40;;;19.70;99.90;;;;;;4951131;28;20310;-59
2023/06/11 05:32:43;;;;;;;12.47;11.13;;;19.80;99.90;;;;;;4952620;28;20232;-59
2023/06/11 05:35:12;;;;;;;12.80;11.60;;;20.00;99.90;;;;;;4952673;28;20223;-60
2023/06/11 05:37:40;;;;;;;13.53;11.17;;;20.10;99.90;;;;;;4952716;28;20306;-58
2023/06/11 05:40:11;;;;;;;11.63;10.30;;;20.20;99.90;;;;;;4950631;28;20227;-59
2023/06/11 05:42:39;;;;;;;12.27;10.87;;;20.30;99.90;;;;;;4953774;28;20723;-59
2023/06/11 05:45:08;;;;;;;14.93;11.07;;;20.40;99.90;;;;;;4953059;28;20224;-59
2023/06/11 05:47:38;;;;;;;14.80;10.50;;;20.50;99.90;;;;;;4953692;28;20232;-59
2023/06/11 05:50:07;;;;;;;11.07;10.07;;;20.60;99.90;;;;;;4943776;28;20235;-59
2023/06/11 05:52:36;;;;;;;13.03;10.67;;;20.70;99.90;;;;;;4950683;28;20775;-59
2023/06/11 05:55:05;;;;;;;15.23;10.97;;;20.80;99.90;;;;;;4953310;28;20211;-59
2023/06/11 05:57:33;;;;;;;11.77;10.27;;;20.90;99.90;;;;;;4953361;28;20230;-59
2023/06/11 06:00:02;;;;;;;16.27;10.60;;;21.00;99.90;;;;;;4953450;28;20280;-59
2023/06/11 06:02:30;;;;;;;13.60;10.13;;;21.20;99.90;;;;;;4953681;28;20591;-59
2023/06/11 06:05:00;;;;;;;11.50;10.40;;;21.30;99.90;;;;;;4952936;28;20721;-59
2023/06/11 06:07:29;;;;;;;13.57;10.50;;;21.40;99.90;;;;;;4949863;28;20217;-59
2023/06/11 06:09:57;;;;;;;14.47;9.90;;;21.50;99.90;;;;;;4948999;29;20185;-59
2023/06/11 06:12:25;;;;;;;16.60;9.70;;;21.70;99.90;;;;;;4951418;28;20219;-59
2023/06/11 06:14:54;;;;;;;9.67;8.67;;;21.80;99.90;;;;;;4950660;28;20235;-59
2023/06/11 06:17:22;;;;;;;11.43;8.70;;;21.90;99.90;;;;;;4951333;28;20223;-59
2023/06/11 06:19:51;;;;;;;9.77;8.77;;;22.10;99.90;;;;;;4954501;28;20254;-59
2023/06/11 06:22:20;;;;;;;13.30;9.00;;;22.20;99.90;;;;;;4955369;28;20196;-59
2023/06/11 06:24:48;;;;;;;10.30;8.70;;;22.40;99.90;;;;;;4955756;28;20224;-59
2023/06/11 06:27:17;;;;;;;9.53;8.60;;;22.50;99.90;;;;;;4952196;28;20380;-59
2023/06/11 06:29:45;;;;;;;9.00;8.17;;;22.70;99.90;;;;;;4956479;28;20400;-59
2023/06/11 06:32:13;;;;;;;9.00;8.20;;;22.90;99.90;;;;;;4956885;28;20235;-59
2023/06/11 06:34:42;;;;;;;11.90;8.80;;;22.90;99.90;;;;;;4956092;28;20224;-58
2023/06/11 06:37:11;;;;;;;9.40;8.40;;;23.10;99.90;;;;;;4957829;28;20621;-59
2023/06/11 06:39:41;;;;;;;9.10;7.63;;;23.20;99.90;;;;;;4956309;28;20883;-59
2023/06/11 06:42:10;;;;;;;10.13;9.07;;;23.30;99.90;;;;;;4957048;28;20570;-58
2023/06/11 06:44:38;;;;;;;10.20;8.20;;;23.40;99.90;;;;;;4956976;28;20566;-59
2023/06/11 06:47:07;;;;;;;10.23;8.60;;;23.60;99.90;;;;;;4957201;28;20315;-59
2023/06/11 06:49:38;;;;;;;9.33;8.20;;;23.70;99.90;;;;;;4955693;28;20188;-59
2023/06/11 06:52:09;;;;;;;10.00;8.27;;;23.70;99.90;;;;;;4956355;28;20215;-59
2023/06/11 06:54:37;;;;;;;10.13;8.50;;;23.80;99.90;;;;;;4955449;28;20228;-59
2023/06/11 06:57:09;;;;;;;12.13;8.23;;;24.00;99.90;;;;;;4956314;28;20723;-59
2023/06/11 06:59:37;;;;;;;10.60;8.50;;;24.00;99.90;;;;;;4953304;28;20228;-59
2023/06/11 07:02:06;;;;;;;9.23;8.33;;;24.10;99.90;;;;;;4954453;28;20429;-59
2023/06/11 07:04:37;;;;;;;10.63;8.60;;;24.20;99.90;;;;;;4953578;28;20222;-59
2023/06/11 07:07:05;;;;;;;11.57;9.33;;;24.40;99.90;;;;;;4954591;29;20213;-59
2023/06/11 07:09:34;;;;;;;8.77;7.97;;;24.50;99.90;;;;;;4950286;28;20218;-59
2023/06/11 07:12:02;;;;;;;13.77;7.97;;;24.60;99.90;;;;;;4955854;28;20226;-60
2023/06/11 07:14:32;;;;;;;12.57;8.10;;;24.80;99.90;;;;;;4956296;28;20222;-59
2023/06/11 07:17:00;;;;;;;8.33;7.63;;;25.00;99.90;;;;;;4951507;28;20222;-59
2023/06/11 07:19:28;;;;;;;9.87;7.43;;;25.10;99.90;;;;;;4955767;28;20198;-59
2023/06/11 07:21:57;;;;;;;8.50;7.77;;;25.20;99.90;;;;;;4955948;28;20214;-59
2023/06/11 07:24:47;;;;;;;9.40;7.33;;;25.30;99.90;;;;;;4953025;28;20229;-59
2023/06/11 07:27:15;;;;;;;8.37;7.53;;;25.50;99.90;;;;;;4955714;28;20702;-59
2023/06/11 07:29:46;;;;;;;8.60;7.57;;;25.60;99.90;;;;;;4954866;28;20229;-60
2023/06/11 07:32:14;;;;;;;9.80;7.50;;;25.70;99.90;;;;;;4950705;28;20227;-59
2023/06/11 07:34:43;;;;;;;8.97;8.17;;;25.80;99.90;;;;;;4946185;28;20228;-59
2023/06/11 07:37:11;;;;;;;9.47;7.97;;;25.80;99.90;;;;;;4956044;29;20539;-59
2023/06/11 07:39:40;;;;;;;8.70;7.80;;;25.90;99.90;;;;;;4954639;28;20726;-59
2023/06/11 07:42:08;;;;;;;7.80;7.10;;;26.00;99.90;;;;;;4954680;28;20247;-59
2023/06/11 07:44:37;;;;;;;8.33;7.50;;;26.10;99.90;;;;;;4955079;28;20307;-59
2023/06/11 07:47:07;;;;;;;8.20;7.40;;;26.10;99.90;;;;;;4953134;28;20229;-59
2023/06/11 07:49:35;;;;;;;7.87;6.73;;;26.20;99.90;;;;;;4944468;28;20641;-59
2023/06/11 07:52:04;;;;;;;9.77;7.37;;;26.40;99.90;;;;;;4952529;29;20199;-59
2023/06/11 07:54:33;;;;;;;7.77;7.17;;;26.40;99.90;;;;;;4949133;28;20218;-59
2023/06/11 07:57:01;;;;;;;8.13;7.47;;;26.50;99.90;;;;;;4951880;28;20224;-59
2023/06/11 07:59:30;;;;;;;10.20;7.73;;;26.70;99.90;;;;;;4955346;28;20224;-59
2023/06/11 08:01:58;;;;;;;7.40;6.80;;;26.90;99.90;;;;;;4954151;28;20239;-59
2023/06/11 08:04:27;;;;;;;6.97;6.37;;;27.00;99.90;;;;;;4949436;28;20189;-60
2023/06/11 08:06:56;;;;;;;7.73;7.13;;;27.30;99.90;;;;;;4952703;29;20191;-60
2023/06/11 08:09:24;;;;;;;8.30;7.40;;;27.40;99.90;;;;;;4954608;28;20216;-60
2023/06/11 08:11:57;;;;;;;7.87;7.13;;;27.40;99.90;;;;;;4954426;28;20236;-60
2023/06/11 08:14:26;;;;;;;8.37;7.23;;;27.50;99.90;;;;;;4953723;28;20599;-60
2023/06/11 08:16:55;;;;;;;8.60;7.23;;;27.70;99.90;;;;;;4954396;28;20224;-60
2023/06/11 08:19:23;;;;;;;7.07;6.57;;;27.80;99.90;;;;;;4954195;28;20535;-59
2023/06/11 08:21:55;;;;;;;7.90;7.20;;;27.70;99.90;;;;;;4953715;28;20291;-60
2023/06/11 08:24:24;;;;;;;7.53;6.93;;;27.80;99.90;;;;;;4948498;28;20229;-60
2023/06/11 08:26:52;;;;;;;8.23;6.90;;;27.90;99.90;;;;;;4954344;28;20228;-60
2023/06/11 08:29:21;;;;;;;8.25;6.80;;;28.10;99.90;;;;;;4950199;28;20218;-59
2023/06/11 08:31:49;;;;;;;7.22;6.57;;;28.30;99.90;;;;;;4951066;28;20699;-59
2023/06/11 08:34:17;;;;;;;7.25;6.72;;;28.30;99.90;;;;;;4955357;28;20202;-59
2023/06/11 08:36:46;;;;;;;7.43;6.82;;;28.50;99.90;;;;;;4954991;28;20701;-60
2023/06/11 08:39:15;;;;;;;7.68;7.13;;;28.60;99.90;;;;;;4953446;28;20227;-60
2023/06/11 08:41:44;;;;;;;8.10;6.32;;;28.70;99.90;;;;;;4951759;28;20241;-60
2023/06/11 08:44:12;;;;;;;7.43;6.72;;;28.80;99.90;;;;;;4950543;28;20231;-60
2023/06/11 08:46:45;;;;;;;11.32;7.40;;;28.80;99.90;;;;;;4953896;28;20680;-60
2023/06/11 08:49:21;;;;;;;6.90;6.30;;;28.90;99.90;;;;;;4955681;28;20549;-60
2023/06/11 08:51:50;;;;;;;7.05;6.45;;;29.30;99.90;;;;;;4955236;28;20296;-60
2023/06/11 08:54:20;;;;;;;8.02;6.80;;;29.30;99.90;;;;;;4954037;28;20233;-60
2023/06/11 08:56:48;;;;;;;6.93;6.43;;;29.20;99.90;;;;;;4949102;28;20574;-60
2023/06/11 08:59:18;;;;;;;7.43;6.72;;;29.30;99.90;;;;;;4951686;28;20237;-60
2023/06/11 09:01:50;;;;;;;7.00;6.40;;;29.60;99.90;;;;;;4950700;28;20594;-60
2023/06/11 09:04:19;;;;;;;7.47;6.55;;;29.60;99.90;;;;;;4954621;28;20194;-59
2023/06/11 09:06:51;;;;;;;6.82;6.22;;;30.00;99.90;;;;;;4955237;28;20186;-60
2023/06/11 09:09:21;;;;;;;7.57;6.43;;;29.90;99.90;;;;;;4952313;28;20217;-61
2023/06/11 09:11:49;;;;;;;6.85;6.28;;;29.90;99.90;;;;;;4952798;28;20223;-61
2023/06/11 09:14:18;;;;;;;6.00;5.50;;;30.00;99.90;;;;;;4950573;28;20222;-60
2023/06/11 09:16:47;;;;;;;6.57;5.97;;;30.20;99.90;;;;;;4954593;28;20234;-61
2023/06/11 09:19:17;;;;;;;7.07;6.47;;;30.30;99.90;;;;;;4953719;28;20238;-61
2023/06/11 09:21:51;;;;;;;6.45;5.82;;;30.20;99.90;;;;;;4953672;28;20231;-61
2023/06/11 09:24:22;;;;;;;7.00;6.40;;;30.40;99.90;;;;;;4951577;28;20232;-61
2023/06/11 09:26:53;;;;;;;6.45;5.97;;;30.50;99.90;;;;;;4953675;28;20646;-61
2023/06/11 09:29:21;;;;;;;6.85;6.20;;;30.60;99.90;;;;;;4954058;28;20606;-60
2023/06/11 09:31:50;;;;;;;5.68;5.20;;;30.70;99.90;;;;;;4949435;28;20587;-60
2023/06/11 09:34:21;;;;;;;5.88;5.45;;;30.80;99.90;;;;;;4943719;28;20193;-60
2023/06/11 09:36:51;;;;;;;6.00;5.63;;;30.90;99.90;;;;;;4951058;28;20252;-60
2023/06/11 09:39:22;;;;;;;5.90;5.32;;;31.10;99.90;;;;;;4950536;28;20228;-60
2023/06/11 09:41:51;;;;;;;5.22;4.78;;;31.30;99.90;;;;;;4951878;28;21424;-60
2023/06/11 09:44:21;;;;;;;5.15;4.85;;;31.40;99.90;;;;;;4948406;28;20227;-61
2023/06/11 09:46:50;;;;;;;4.65;4.45;;;31.60;99.90;;;;;;4952621;28;20303;-61
2023/06/11 09:49:18;;;;;;;5.40;5.00;;;31.70;99.90;;;;;;4952774;28;20662;-60
2023/06/11 09:51:48;;;;;;;5.50;5.07;;;31.80;99.90;;;;;;4955555;28;20728;-61
2023/06/11 09:54:54;;;;;;;5.50;5.07;;;31.90;99.90;;;;;;4957578;28;20226;-61
2023/06/11 09:57:24;;;;;;;5.75;5.20;;;32.00;99.90;;;;;;4958218;28;20242;-60
2023/06/11 09:59:52;;;;;;;5.22;4.93;;;32.00;99.90;;;;;;4960574;28;20243;-60
2023/06/11 10:02:22;;;;;;;4.97;4.68;;;32.10;99.90;;;;;;4954813;28;20288;-60
2023/06/11 10:04:51;;;;;;;4.72;4.43;;;32.30;99.90;;;;;;4954108;28;20239;-60
2023/06/11 10:07:23;;;;;;;5.60;4.82;;;32.00;99.90;;;;;;4958386;28;20283;-60
2023/06/11 10:09:54;;;;;;;4.90;4.57;;;32.30;99.90;;;;;;4957506;28;20192;-60
2023/06/11 10:12:25;;;;;;;5.63;5.15;;;32.30;99.90;;;;;;4963241;28;20686;-60
2023/06/11 10:14:55;;;;;;;4.72;4.43;;;32.50;99.90;;;;;;4960238;28;20229;-60
2023/06/11 10:17:23;;;;;;;5.00;4.57;;;32.40;99.90;;;;;;4958452;28;20215;-60
2023/06/11 10:19:52;;;;;;;5.40;4.93;;;32.20;99.90;;;;;;4959084;28;20582;-60
2023/06/11 10:22:33;;;;;;;5.18;4.88;;;32.20;99.90;;;;;;4954013;28;20216;-60
2023/06/11 10:25:02;;;;;;;4.40;4.20;;;32.50;99.90;;;;;;4956836;28;20213;-60
2023/06/11 10:27:39;;;;;;;5.40;5.00;;;32.60;99.90;;;;;;4955917;28;20222;-60
2023/06/11 10:30:08;;;;;;;4.95;4.65;;;33.00;99.90;;;;;;4959533;28;20243;-61
2023/06/11 10:32:49;;;;;;;5.10;4.90;;;33.10;99.90;;;;;;4959720;28;20277;-61
2023/06/11 10:35:23;;;;;;;5.53;4.72;;;33.20;99.90;;;;;;4959448;28;20290;-60
2023/06/11 10:38:03;;;;;;;5.22;4.93;;;33.30;99.90;;;;;;4953381;28;20244;-61
2023/06/11 10:40:40;;;;;;;5.43;4.82;;;33.30;99.90;;;;;;4956950;28;20214;-60
2023/06/11 10:43:19;;;;;;;5.05;4.75;;;33.30;99.90;;;;;;4955746;28;20211;-60
2023/06/11 10:46:01;;;;;;;4.40;4.20;;;33.40;99.90;;;;;;4953258;28;20274;-60
2023/06/11 10:48:31;;;;;;;5.30;4.95;;;33.50;99.90;;;;;;4958021;28;20230;-61
2023/06/11 10:51:03;;;;;;;4.78;4.47;;;33.70;99.90;;;;;;4959887;28;20221;-62
2023/06/11 10:53:39;;;;;;;4.97;4.68;;;33.80;99.90;;;;;;4958836;28;20226;-61
2023/06/11 10:56:08;;;;;;;4.95;4.65;;;33.60;99.90;;;;;;4959267;28;20227;-60
2023/06/11 10:58:40;;;;;;;5.28;4.90;;;33.30;99.90;;;;;;4955446;28;20323;-60
2023/06/11 11:01:08;;;;;;;5.22;4.82;;;33.20;99.90;;;;;;4956873;29;20294;-61
2023/06/11 11:03:40;;;;;;;4.97;4.68;;;33.20;99.90;;;;;;4955629;28;20228;-61
2023/06/11 11:06:09;;;;;;;5.05;4.85;;;33.30;99.90;;;;;;4954992;28;20630;-60
2023/06/11 11:08:38;;;;;;;5.68;5.15;;;33.40;99.90;;;;;;4960946;28;20279;-61
2023/06/11 11:11:06;;;;;;;4.57;4.38;;;33.90;99.90;;;;;;4954464;28;20235;-61
2023/06/11 11:13:35;;;;;;;4.78;4.57;;;33.80;99.90;;;;;;4955888;28;20559;-60
2023/06/11 11:16:05;;;;;;;5.22;4.93;;;33.70;99.90;;;;;;4956631;28;20590;-61
2023/06/11 11:18:34;;;;;;;5.35;4.95;;;33.60;99.90;;;;;;4952007;28;20226;-61
2023/06/11 11:21:03;;;;;;;5.25;4.97;;;33.50;99.90;;;;;;4952136;28;20236;-60
2023/06/11 11:23:32;;;;;;;5.22;5.00;;;33.00;99.90;;;;;;4953862;28;20232;-60
2023/06/11 11:26:01;;;;;;;5.10;4.70;;;32.50;99.90;;;;;;4954025;28;20232;-60
2023/06/11 11:28:32;;;;;;;5.85;5.00;;;32.10;99.90;;;;;;4950588;28;20224;-60
2023/06/11 11:31:05;;;;;;;5.45;5.05;;;32.00;99.90;;;;;;4954827;28;20545;-60
2023/06/11 11:33:35;;;;;;;5.63;5.32;;;32.40;99.90;;;;;;4955175;28;20573;-61
2023/06/11 11:36:05;;;;;;;5.22;4.93;;;32.80;99.90;;;;;;4956754;28;20263;-61
2023/06/11 11:38:38;;;;;;;6.22;4.70;;;32.90;99.90;;;;;;4947725;28;20223;-60
2023/06/11 11:41:09;;;;;;;4.90;4.70;;;32.90;99.90;;;;;;4951297;28;20227;-60
2023/06/11 11:43:38;;;;;;;5.50;5.03;;;32.60;99.90;;;;;;4957160;28;20243;-60
2023/06/11 11:46:18;;;;;;;6.20;5.35;;;32.10;99.90;;;;;;4951440;29;20189;-60
2023/06/11 11:48:47;;;;;;;5.50;5.20;;;31.70;99.90;;;;;;4954184;28;20306;-60
2023/06/11 11:51:17;;;;;;;5.65;5.15;;;31.40;99.90;;;;;;4955322;28;20735;-60
2023/06/11 11:53:46;;;;;;;5.68;5.28;;;31.40;99.90;;;;;;4955530;28;20313;-61
2023/06/11 11:56:14;;;;;;;5.55;5.22;;;31.70;99.90;;;;;;4950361;28;20310;-60
2023/06/11 11:58:44;;;;;;;5.80;5.25;;;32.10;99.90;;;;;;4953430;28;20262;-60
2023/06/11 12:01:21;;;;;;;5.40;5.10;;;32.40;99.90;;;;;;4955372;28;20207;-60
2023/06/11 12:03:58;;;;;;;5.05;4.75;;;32.40;99.90;;;;;;4946586;28;20234;-61
2023/06/11 12:06:26;;;;;;;5.00;4.70;;;32.50;99.90;;;;;;4954171;28;20225;-60
2023/06/11 12:08:55;;;;;;;5.65;5.20;;;32.40;99.90;;;;;;4949136;28;20724;-60
2023/06/11 12:11:23;;;;;;;5.13;4.93;;;32.20;99.90;;;;;;4954200;28;20236;-61
2023/06/11 12:13:52;;;;;;;5.55;5.22;;;32.30;99.90;;;;;;4957399;28;20222;-60
2023/06/11 12:16:24;;;;;;;5.10;4.70;;;32.30;99.90;;;;;;4953234;28;20294;-60
2023/06/11 12:18:53;;;;;;;5.30;4.93;;;32.20;99.90;;;;;;4952723;28;20195;-60
2023/06/11 12:21:32;;;;;;;5.43;5.13;;;32.20;99.90;;;;;;4950350;28;20237;-60
2023/06/11 12:24:01;;;;;;;6.82;5.05;;;32.30;99.90;;;;;;4955506;28;20231;-60
2023/06/11 12:26:31;;;;;;;5.70;5.22;;;32.20;99.90;;;;;;4951844;28;20255;-60
2023/06/11 12:29:00;;;;;;;5.32;4.93;;;32.00;99.90;;;;;;4954974;28;20314;-61
2023/06/11 12:31:30;;;;;;;5.68;5.15;;;31.60;99.90;;;;;;4953480;28;20296;-60
2023/06/11 12:33:58;;;;;;;5.82;5.32;;;31.40;99.90;;;;;;4944008;28;20509;-61
2023/06/11 12:36:27;;;;;;;5.38;5.10;;;31.20;99.90;;;;;;4949932;28;20217;-60
2023/06/11 12:38:56;;;;;;;5.20;4.72;;;30.70;99.90;;;;;;4951609;28;20224;-60
2023/06/11 12:41:25;;;;;;;5.43;4.93;;;30.70;99.90;;;;;;4943519;28;20223;-61
2023/06/11 12:43:54;;;;;;;5.97;5.18;;;30.50;99.90;;;;;;4954976;28;20584;-60
2023/06/11 12:46:22;;;;;;;5.30;4.90;;;30.50;99.90;;;;;;4946547;28;20197;-60
2023/06/11 12:48:53;;;;;;;5.43;5.13;;;30.50;99.90;;;;;;4951400;28;20204;-60
2023/06/11 12:51:21;;;;;;;5.78;5.38;;;30.50;99.90;;;;;;4949244;28;20232;-60